Portada
METAR-TAF:

METAR-TAF

Aeroports :

Bermudes, Bermudes

latitud: 32-22N, longitud: 064-41W, altitud: 6 m

Observació

L'informe es va fer fa 20 minuts, a les 04:55 UTC
Vent 10 kt del Nord/Nord-Est
Temperatura 20°C
Humitat 88%
Pressió 1023 hPa
Visibilitat 10 km o més
Núvols disperses a una alçada de 1100 ft
Cel ennuvolat a una alçada de 2400 ft
Cel ennuvolat a una alçada de 5900 ft
Cel ennuvolat a una alçada de 30000 ft
xàfecs de pluja

METAR: TXKF 150455Z 02010KT 9999 -SHRA SCT011 BKN024 BKN059 BKN300 20/18 Q1023

Hora: 01:15 (05:15 UTC)

Pronòstic

L'informe es va fer fa 5 hores i 42 minuts, a les 23:33 UTC
Pronòstic vàlid del 15 a les 00 UTC al 15 a les 24 UTC
Vent 12 kt del Nord-Est
Visibilitat 10 km o més
Núvols disperses a una alçada de 2000 ft
Cel ennuvolat a una alçada de 3500 ft
xàfecs en les proximitats

TAF: TXKF 142333Z 1500/1524 05012KT 9999 VCSH SCT020 BKN035

Observacions i pronòstics meteorològics de més de 4000 aeroports (METAR i TAF).

Les estacions disponibles són els punts grocs i vermells al mapa.

Posi el ratolí al punt desitjat per veure el nom de l'estació.

Feu clic per veure les observacions i els pronòstics meteorològics.

Per canviar el mapa: feu clic els botons verds amb una creu de color negre per apropar; al botó verd amb un guió per allunyar la imatge; o en les fletxes verdes per a mapes adjacents.


METAR-TAF: